Mason Valley Wildlife Refuge, Nevada Weather observations

Data are for 10 minute period ending at time listed.
 Day   Time   Solar   Ave.   Ave.  Ave.  Vector  Max.   Baro.   Total    
  of    of     Rad.   Air    Rel.  Wind   Wind   Wind  Press.  Precip.   
Year   Day            Temp.  Hum.  Speed  Dir.   Gust                    
2015   (PST)  Kw/m2    F      %     mph   deg.    mph    mb.     in.     
-------------------------------------------------------------------------
  89    0:50   0.00   35.7    39    1.6    35     2.6   871.5    0.00 
  89    1:00   0.00   36.7    46    2.7    70     4.1   871.4    0.00 
  89    1:10   0.00   35.8    42    2.3   112     3.9   871.3    0.00 
  89    1:20   0.00   33.9    46    2.5   131     4.2   871.2    0.00 
  89    1:30   0.00   33.6    46    0.8   337     1.7   871.2    0.00 
  89    1:40   0.00   34.6    45    0.8   138     2.3   871.0    0.00 
  89    1:50   0.00   35.7    45    1.4   200     3.3   871.0    0.00 
  89    2:00   0.00   36.5    44    3.7   310     5.3   871.2    0.00 
  89    2:10   0.00   37.8    43    1.3   297     2.6   871.2    0.00 
  89    2:20   0.00   36.1    45    1.7   202     3.0   871.2    0.00 
  89    2:30   0.00   36.9    43    2.2   174     3.7   871.0    0.00 
  89    2:40   0.00   34.5    42    3.4   126     3.9   871.0    0.00 
  89    2:50   0.00   33.4    44    3.6   139     4.4   871.0    0.00 
  89    3:00   0.00   34.4    41    3.5   165     5.2   871.0    0.00 
  89    3:10   0.00   33.9    43    3.3   312     5.8   871.0    0.00 
  89    3:20   0.00   35.7    40    1.4   303     2.5   871.0    0.00 
  89    3:30   0.00   36.1    44    3.8   290     5.5   870.9    0.00 
  89    3:40   0.00   34.2    49    1.4   270     5.6   870.9    0.00 
  89    3:50   0.00   32.4    46    4.6   130     7.3   871.0    0.00 
  89    4:00   0.00   32.1    43    1.4    76     3.4   871.0    0.00 
  89    4:10   0.00   32.1    43    0.5    54     1.4   871.0    0.00 
  89    4:20   0.00   32.0    43    1.3    10     2.9   871.1    0.00 
  89    4:30   0.00   30.6    46    1.8     4     2.6   871.1    0.00 
  89    4:40   0.00   31.6    47    0.7   352     2.1   871.1    0.00 
  89    4:50   0.00   33.1    49    0.0     0     0.0   871.0    0.00 
  89    5:00   0.00   32.6    48    0.0     0     0.0   871.2    0.00 
  89    5:10   0.00   30.4    51    0.4   283     2.1   871.2    0.00 
  89    5:20   0.00   31.3    51    2.0   222     2.8   871.2    0.00 
  89    5:30   0.00   31.4    44    3.1   158     3.9   871.3    0.00 
  89    5:40   0.00   31.2    43    1.4   166     3.3   871.4    0.00 
  89    5:50   0.00   31.2    42    2.3   185     3.7   871.4    0.00 
  89    6:00   0.01   30.4    44    2.2   165     2.9   871.5    0.00 
  89    6:10   0.03   30.2    49    0.5   148     2.7   871.5    0.00 
  89    6:20   0.05   32.6    44    0.0     4     1.3   871.7    0.00 
  89    6:30   0.07   34.0    45    0.5     2     2.6   871.8    0.00 
  89    6:40   0.10   34.2    44    1.6   360     2.3   871.9    0.00 
  89    6:50   0.13   37.0    39    0.8    52     1.5   872.0    0.00 
  89    7:00   0.14   41.7    35    0.4    76     1.6   872.0    0.00 
  89    7:10   0.12   45.0    41    0.9   102     2.5   872.0    0.00 
  89    7:20   0.23   47.3    38    1.1    13     2.1   872.1    0.00 
  89    7:30   0.26   49.8    29    0.8    74     3.6   872.3    0.00 
  89    7:40   0.29   51.9    27    3.8   131     6.8   872.3    0.00 
  89    7:50   0.33   52.9    23    4.0   158     6.0   872.4    0.00 
  89    8:00   0.36   53.9    22    2.9   163     5.6   872.6    0.00 
  89    8:10   0.39   55.0    21    3.3   162     6.1   872.7    0.00 
  89    8:20   0.43   56.1    20    3.9   169     6.8   872.7    0.00 
  89    8:30   0.46   56.9    20    5.2   164     8.6   872.6    0.00 
  89    8:40   0.49   57.9    19    4.0   175     6.9   872.5    0.00 
  89    8:50   0.52   59.2    18    3.4   177     5.8   872.6    0.00 
  89    9:00   0.56   60.3    17    1.4   232     4.2   872.6    0.00 
  89    9:10   0.59   62.7    16    1.7   227     3.9   872.5    0.00 
  89    9:20   0.61   63.8    15    1.6   191     4.1   872.5    0.00 
  89    9:30   0.64   64.1    15    3.4   200     6.1   872.3    0.00 
  89    9:40   0.67   65.0    15    2.3   281     6.1   872.3    0.00 
  89    9:50   0.69   65.4    14    1.8   316     4.3   872.2    0.00 
  89   10:00   0.72   65.7    14    2.3   279     4.4   872.0    0.00 
  89   10:10   0.74   66.9    14    3.1    60     7.3   871.9    0.00 
  89   10:20   0.76   67.9    14    3.4   112     8.1   871.8    0.00 
  89   10:30   0.78   67.5    14    4.6    22     8.7   871.5    0.00 
  89   10:40   0.80   68.6    13    5.2    80     9.0   871.4    0.00 
  89   10:50   0.82   69.2    12    3.9    54    12.1   871.3    0.00 
  89   11:00   0.84   69.7    12    4.8    89     7.9   871.1    0.00 
  89   11:10   0.85   69.9    12    3.8     5     9.3   871.0    0.00 
  89   11:20   0.86   70.3    12    4.3    40     9.5   870.8    0.00 
  89   11:30   0.87   72.1    12    4.3    90    10.5   870.7    0.00 
  89   11:40   0.88   72.2    12    5.1    54    10.7   870.5    0.00 
  89   11:50   0.89   72.7    11    5.9    68    11.2   870.3    0.00 
  89   12:00   0.88   73.4    11    5.4    85    10.4   870.2    0.00 
  89   12:10   0.90   73.5    11    6.8    98    15.3   870.0    0.00 
  89   12:20   0.90   74.4    11    7.1    91    12.3   869.8    0.00 
  89   12:30   0.90   75.4    11    6.6   105    13.7   869.6    0.00 
  89   12:40   0.90   76.1    10    7.5    96    14.0   869.4    0.00 
  89   12:50   0.90   76.2    10    7.6   122    13.7   869.2    0.00 
  89   13:00   0.90   76.7    10    6.1   110    14.1   869.0    0.00 
  89   13:10   0.92   76.8    10    7.5   139    13.4   868.6    0.00 
  89   13:20   0.94   77.6    10    6.5    82    11.9   868.4    0.00 
  89   13:30   0.90   78.0     9    6.2    54    15.1   868.2    0.00 
  89   13:40   0.92   79.3    10    6.3    96    14.0   868.0    0.00 
  89   13:50   0.78   79.0     9    4.3    85    10.5   868.0    0.00 
  89   14:00   0.71   79.1    10    5.1   165    10.5   867.9    0.00 
  89   14:10   0.82   79.6    10    5.4   175    10.0   867.7    0.00 
  89   14:20   0.59   79.2    10    4.8   233    10.9   867.6    0.00 
  89   14:30   0.47   78.9     9    2.8   253     8.4   867.5    0.00 
  89   14:40   0.40   78.5    10    3.5   264     6.6   867.3    0.00 
  89   14:50   0.72   79.8    10    4.3   290     7.1   867.1    0.00 
  89   15:00   0.70   79.8     9    2.9    23     7.7   867.0    0.00 
  89   15:10   0.64   79.5    10    5.1   358     8.3   866.9    0.00 
  89   15:20   0.46   79.1    10    5.2   282     8.8   866.7    0.00 
  89   15:30   0.62   79.2    10    3.8   292    10.9   866.6    0.00 
  89   15:40   0.56   79.5    10    4.8   228     7.8   866.6    0.00 
  89   15:50   0.52   79.1    10    6.4   242    15.1   866.5    0.00 
  89   16:00   0.47   78.6    10    7.6   345    18.0   866.3    0.00 
  89   16:10   0.43   78.3    10    6.6     1    10.2   866.2    0.00 
  89   16:20   0.35   77.9    10    6.0   359    10.5   866.1    0.00 
  89   16:30   0.22   77.6    10    4.8    25    11.3   866.0    0.00 
  89   16:40   0.12   76.7    11    4.4    25    10.6   865.8    0.00 
  89   16:50   0.12   76.3    11    4.2   342     6.5   865.8    0.00 
  89   17:00   0.28   76.4    12    3.3   356     4.5   865.7    0.00 
  89   17:10   0.25   77.4    12    4.6   356     6.5   865.7    0.00 
  89   17:20   0.17   76.3    14    6.1     7    12.1   865.7    0.00 
  89   17:30   0.12   75.5    17    9.6   341    15.1   865.6    0.00 
  89   17:40   0.06   74.3    20    7.7   276    13.8   865.7    0.00 
  89   17:50   0.03   72.1    23    6.4   285    10.2   865.8    0.00 
  89   18:00   0.01   71.5    22    5.2   306     8.0   865.8    0.00 
  89   18:10   0.01   70.6    24    4.6   313     7.2   865.9    0.00 
  89   18:20   0.01   69.8    24    5.6   308     8.7   866.0    0.00 
  89   18:30   0.00   69.0    24    4.3   339     6.5   866.1    0.00 
  89   18:40   0.00   67.9    25    4.0   339     6.5   866.2    0.00 
  89   18:50   0.00   67.5    24    5.9   348    11.7   866.3    0.00 
  89   19:00   0.00   68.5    23    6.1   336    11.2   866.4    0.00 
  89   19:10   0.00   67.5    23    5.8   357     9.1   866.5    0.00 
  89   19:20   0.00   67.1    24    5.1   360     9.9   866.7    0.00 
  89   19:30   0.00   65.9    24    1.4   261     4.6   866.8    0.00 
  89   19:40   0.00   65.6    22    2.2   228     8.0   866.9    0.00 
  89   19:50   0.00   66.1    21    2.0   220     5.3   866.9    0.00 
  89   20:00   0.00   66.0    21    2.0   116     4.8   867.0    0.00 
  89   20:10   0.00   66.0    20    2.3    68     5.6   867.1    0.00 
  89   20:20   0.00   67.2    17    6.3   216    15.1   867.1    0.00 
  89   20:30   0.00   69.0    15    6.6   282    11.8   867.0    0.00 
  89   20:40   0.00   67.6    16    3.1   240     7.3   867.1    0.00 
  89   20:50   0.00   66.5    17    2.7   277     6.7   867.2    0.00 
  89   21:00   0.00   64.3    19    3.4   360     5.3   867.2    0.00 
  89   21:10   0.00   63.7    19    4.4   332     5.9   867.2    0.00 
  89   21:20   0.00   63.0    19    3.0   311     4.0   867.1    0.00 
  89   21:30   0.00   59.8    24    3.4   252     6.1   867.0    0.00 
  89   21:40   0.00   57.5    25    5.0   154     7.4   867.0    0.00 
  89   21:50   0.00   57.1    24    2.4   103     5.3   867.0    0.00 
  89   22:00   0.00   55.2    26    2.2    87     3.3   867.1    0.00 
  89   22:10   0.00   54.9    27    0.7   170     2.4   867.1    0.00 
  89   22:20   0.00   53.6    29    2.3   183     4.8   867.1    0.00 
  89   22:30   0.00   54.6    28    2.3   113     4.6   867.1    0.00 
  89   22:40   0.00   55.1    29    3.0    42     4.4   867.1    0.00 
  89   22:50   0.00   52.5    36    1.0   165     5.6   867.1    0.00 
  89   23:00   0.00   52.2    34    3.0   186     4.7   867.0    0.00 
  89   23:10   0.00   53.4    33    1.4   136     2.2   867.0    0.00 
  89   23:20   0.00   51.5    35    2.4    38     3.3   866.9    0.00 
  89   23:30   0.00   51.0    36    2.1    33     4.2   866.9    0.00 
  89   23:40   0.00   49.0    38    1.2   147     6.3   866.9    0.00 
  89   23:50   0.00   48.5    41    2.5   220     5.7   866.9    0.00 
  90    0:00   0.00   47.1    41    2.5   189     4.4   867.1    0.00 
  90    0:10   0.00   48.5    39    1.3    88     4.8   867.0    0.00 
  90    0:20   0.00   47.6    41    2.4   127     5.2   866.9    0.00 
  90    0:30   0.00   49.0    38    2.1   143     3.7   866.9    0.00 
  90    0:40   0.00   49.7    36    2.3   133     4.2   866.8    0.00 

Return to Mason Valley Wildlife Refuge graphs page.


Western Regional Climate Center,wrcc@dri.edu